Time;durP1;ratioP1;P1;durP2;ratioP2;P2;SDS_P1;SDS_P2;PMS_P1;PMS_P2;Temp;Humidity;BMP_temperature;BMP_pressure;BME280_temperature;BME280_humidity;BME280_pressure;Samples;Min_cycle;Max_cycle;Signal;HPM_P1;HPM_P2
2023/03/30 00:00:00;;;;;;;13.10;8.30;;;;;;;;;;5052567;28;20056;-81
2023/03/30 00:02:29;;;;;;;18.15;8.75;;;;;;;;;;5040703;28;20116;-81
2023/03/30 00:05:01;;;;;;;13.32;8.43;;;;;;;;;;5053835;28;20053;-81
2023/03/30 00:07:28;;;;;;;13.23;7.70;;;;;;;;;;5066734;28;20041;-81
2023/03/30 00:09:55;;;;;;;13.88;8.00;;;;;;;;;;5068868;28;20119;-81
2023/03/30 00:12:21;;;;;;;11.95;7.65;;;;;;;;;;5066957;28;20040;-81
2023/03/30 00:14:47;;;;;;;16.90;7.85;;;;;;;;;;5073531;28;20110;-81
2023/03/30 00:17:14;;;;;;;14.07;7.60;;;;;;;;;;5074032;28;20156;-81
2023/03/30 00:19:40;;;;;;;12.68;7.28;;;;;;;;;;5073320;28;20066;-81
2023/03/30 00:22:06;;;;;;;12.68;7.03;;;;;;;;;;5074728;28;20044;-81
2023/03/30 00:24:33;;;;;;;11.82;7.03;;;;;;;;;;5073960;28;20044;-81
2023/03/30 00:26:59;;;;;;;13.85;7.55;;;;;;;;;;5068959;28;20556;-81
2023/03/30 00:29:25;;;;;;;11.80;7.20;;;;;;;;;;5066065;28;20072;-81
2023/03/30 00:31:51;;;;;;;16.10;7.13;;;;;;;;;;5059425;28;20032;-81
2023/03/30 00:34:18;;;;;;;10.85;6.95;;;;;;;;;;5074691;28;20147;-81
2023/03/30 00:36:45;;;;;;;11.00;6.78;;;;;;;;;;5072964;28;20045;-81
2023/03/30 00:39:12;;;;;;;11.50;6.43;;;;;;;;;;5073297;28;20051;-81
2023/03/30 00:41:38;;;;;;;10.90;6.47;;;;;;;;;;5072856;28;20044;-81
2023/03/30 00:44:27;;;;;;;11.13;6.75;;;;;;;;;;5073288;28;20044;-81
2023/03/30 00:46:53;;;;;;;13.25;7.13;;;;;;;;;;5055866;28;20079;-81
2023/03/30 00:49:20;;;;;;;13.07;6.55;;;;;;;;;;5070088;28;20131;-81
2023/03/30 00:51:49;;;;;;;14.52;6.25;;;;;;;;;;5051839;28;20044;-81
2023/03/30 00:54:18;;;;;;;10.38;5.75;;;;;;;;;;5065541;28;20124;-81
2023/03/30 00:56:44;;;;;;;9.07;5.85;;;;;;;;;;5062495;28;20036;-81
2023/03/30 00:59:11;;;;;;;11.40;5.88;;;;;;;;;;5072862;28;20515;-81
2023/03/30 01:01:39;;;;;;;11.10;5.65;;;;;;;;;;5058032;28;20052;-81
2023/03/30 01:04:05;;;;;;;10.70;5.72;;;;;;;;;;5072727;28;20075;-81
2023/03/30 01:06:33;;;;;;;11.27;5.82;;;;;;;;;;5072765;28;20040;-81
2023/03/30 01:08:59;;;;;;;9.10;5.18;;;;;;;;;;5053141;28;20041;-81
2023/03/30 01:11:26;;;;;;;9.25;5.72;;;;;;;;;;5063986;28;20493;-81
2023/03/30 01:13:58;;;;;;;10.40;5.13;;;;;;;;;;5068519;28;20040;-81
2023/03/30 01:16:38;;;;;;;8.90;5.07;;;;;;;;;;5052453;28;20128;-81
2023/03/30 01:19:23;;;;;;;11.50;5.20;;;;;;;;;;5071123;28;20532;-81
2023/03/30 01:22:03;;;;;;;11.80;5.30;;;;;;;;;;5037541;28;20053;-81
2023/03/30 01:24:52;;;;;;;8.75;4.65;;;;;;;;;;5051980;28;20457;-81
2023/03/30 01:27:21;;;;;;;9.40;4.35;;;;;;;;;;5068244;28;20489;-81
2023/03/30 01:29:47;;;;;;;11.05;5.03;;;;;;;;;;5072022;28;20045;-81
2023/03/30 01:32:32;;;;;;;11.77;5.40;;;;;;;;;;5071861;28;20094;-81
2023/03/30 01:35:01;;;;;;;10.75;4.75;;;;;;;;;;5064146;28;20045;-81
2023/03/30 01:37:45;;;;;;;7.55;4.22;;;;;;;;;;5066088;28;20049;-81
2023/03/30 01:40:16;;;;;;;6.95;3.67;;;;;;;;;;5045232;28;20129;-81
2023/03/30 01:42:48;;;;;;;14.25;4.30;;;;;;;;;;5058613;28;20044;-82
2023/03/30 01:45:22;;;;;;;10.60;3.90;;;;;;;;;;5073269;28;20037;-81
2023/03/30 01:47:56;;;;;;;8.30;3.78;;;;;;;;;;5057263;28;20032;-81
2023/03/30 01:50:27;;;;;;;8.98;3.75;;;;;;;;;;5072975;28;20048;-81
2023/03/30 01:52:58;;;;;;;6.60;3.80;;;;;;;;;;5072518;28;20424;-81
2023/03/30 01:55:27;;;;;;;7.85;3.67;;;;;;;;;;5072950;28;20048;-81
2023/03/30 01:57:57;;;;;;;11.57;3.78;;;;;;;;;;5071970;28;20115;-81
2023/03/30 02:00:24;;;;;;;8.40;3.90;;;;;;;;;;5051782;28;20451;-81
2023/03/30 02:03:11;;;;;;;9.38;3.97;;;;;;;;;;5051190;28;20505;-81
2023/03/30 02:05:37;;;;;;;;;;;;;;;;;;5057938;28;20076;-81
2023/03/30 02:08:06;;;;;;;7.88;4.20;;;;;;;;;;5084477;28;19959;-81
2023/03/30 02:10:33;;;;;;;11.07;4.28;;;;;;;;;;5051338;28;20044;-81
2023/03/30 02:12:59;;;;;;;9.88;4.00;;;;;;;;;;5051244;28;20505;-81
2023/03/30 02:15:30;;;;;;;7.63;4.13;;;;;;;;;;5084685;28;20040;-81
2023/03/30 02:17:56;;;;;;;10.40;4.05;;;;;;;;;;5050798;28;20052;-81
2023/03/30 02:20:22;;;;;;;8.52;3.90;;;;;;;;;;5051203;28;20094;-81
2023/03/30 02:22:49;;;;;;;9.38;4.10;;;;;;;;;;5081567;28;20057;-81
2023/03/30 02:25:16;;;;;;;8.93;3.53;;;;;;;;;;5067576;28;20044;-81
2023/03/30 02:27:42;;;;;;;9.75;3.90;;;;;;;;;;5051235;28;20044;-81
2023/03/30 02:30:09;;;;;;;8.00;3.80;;;;;;;;;;5050520;28;20080;-81
2023/03/30 02:32:41;;;;;;;8.48;3.65;;;;;;;;;;5067500;28;20083;-81
2023/03/30 02:35:10;;;;;;;10.05;3.75;;;;;;;;;;5050691;28;20045;-81
2023/03/30 02:37:36;;;;;;;6.05;3.42;;;;;;;;;;5034388;28;20037;-81
2023/03/30 02:40:12;;;;;;;10.90;3.85;;;;;;;;;;5050574;28;20111;-82
2023/03/30 02:42:41;;;;;;;9.57;3.60;;;;;;;;;;5050433;28;20102;-81
2023/03/30 02:45:17;;;;;;;10.25;3.67;;;;;;;;;;5051927;28;20049;-81
2023/03/30 02:48:16;;;;;;;7.88;3.40;;;;;;;;;;5051298;28;20045;-81
2023/03/30 02:51:05;;;;;;;9.18;3.28;;;;;;;;;;5034404;28;20052;-81
2023/03/30 02:53:52;;;;;;;7.90;3.47;;;;;;;;;;5048252;28;20136;-81
2023/03/30 02:56:25;;;;;;;6.15;3.13;;;;;;;;;;5051855;28;20029;-81
2023/03/30 02:58:51;;;;;;;9.63;3.47;;;;;;;;;;5059258;28;20569;-82
2023/03/30 03:01:32;;;;;;;6.22;2.72;;;;;;;;;;5056688;28;20049;-82
2023/03/30 03:03:59;;;;;;;6.65;2.72;;;;;;;;;;5070464;28;20072;-81
2023/03/30 03:06:26;;;;;;;6.10;2.40;;;;;;;;;;5072010;28;20094;-81
2023/03/30 03:08:54;;;;;;;10.88;2.60;;;;;;;;;;5070607;28;20048;-81
2023/03/30 03:11:20;;;;;;;8.95;2.65;;;;;;;;;;5072090;28;20049;-81
2023/03/30 03:13:46;;;;;;;7.45;2.20;;;;;;;;;;5070923;28;20123;-81
2023/03/30 03:16:13;;;;;;;10.40;3.00;;;;;;;;;;5070618;28;20051;-81
2023/03/30 03:18:40;;;;;;;6.70;2.40;;;;;;;;;;5037403;28;20371;-82
2023/03/30 03:21:09;;;;;;;10.07;2.47;;;;;;;;;;5071660;28;20497;-81
2023/03/30 03:23:36;;;;;;;7.15;2.28;;;;;;;;;;5070659;28;20041;-81
2023/03/30 03:26:02;;;;;;;8.73;2.58;;;;;;;;;;5070207;28;20055;-81
2023/03/30 03:28:29;;;;;;;4.85;1.98;;;;;;;;;;5057610;28;20044;-81
2023/03/30 03:30:55;;;;;;;7.43;2.50;;;;;;;;;;5070092;28;20037;-81
2023/03/30 03:33:22;;;;;;;6.40;2.47;;;;;;;;;;5072344;28;20467;-81
2023/03/30 03:35:52;;;;;;;7.03;2.65;;;;;;;;;;5075670;28;20028;-81
2023/03/30 03:38:18;;;;;;;7.78;2.67;;;;;;;;;;5074476;28;20080;-81
2023/03/30 03:40:48;;;;;;;7.45;3.15;;;;;;;;;;5074093;28;20090;-81
2023/03/30 03:43:14;;;;;;;7.70;3.00;;;;;;;;;;5073961;28;20121;-81
2023/03/30 03:45:40;;;;;;;6.03;2.60;;;;;;;;;;5075327;28;20040;-81
2023/03/30 03:48:07;;;;;;;9.18;3.35;;;;;;;;;;5073992;28;20040;-81
2023/03/30 03:50:33;;;;;;;7.78;2.65;;;;;;;;;;5073993;28;20128;-81
2023/03/30 03:52:59;;;;;;;9.60;2.78;;;;;;;;;;5068052;28;20040;-81
2023/03/30 03:55:27;;;;;;;11.20;3.08;;;;;;;;;;5050192;28;20048;-81
2023/03/30 03:57:53;;;;;;;9.00;2.60;;;;;;;;;;5073679;28;20073;-81
2023/03/30 04:00:19;;;;;;;8.65;2.60;;;;;;;;;;5075990;28;20115;-81
2023/03/30 04:02:45;;;;;;;8.30;2.80;;;;;;;;;;5061149;28;20037;-82
2023/03/30 04:05:11;;;;;;;8.77;2.80;;;;;;;;;;5036155;28;20045;-82
2023/03/30 04:07:38;;;;;;;10.50;2.40;;;;;;;;;;5054853;28;20052;-82
2023/03/30 04:10:04;;;;;;;8.77;2.45;;;;;;;;;;5037089;28;20053;-81
2023/03/30 04:12:30;;;;;;;9.32;3.10;;;;;;;;;;5053763;28;20047;-81
2023/03/30 04:14:56;;;;;;;8.13;2.60;;;;;;;;;;5060941;28;20045;-81
2023/03/30 04:17:22;;;;;;;10.70;2.55;;;;;;;;;;5053880;28;20072;-81
2023/03/30 04:19:55;;;;;;;8.85;2.50;;;;;;;;;;5053562;28;20063;-81
2023/03/30 04:22:24;;;;;;;10.13;2.47;;;;;;;;;;5053350;28;20037;-82
2023/03/30 04:24:50;;;;;;;9.10;2.88;;;;;;;;;;5053443;28;20084;-81
2023/03/30 04:27:17;;;;;;;8.57;2.80;;;;;;;;;;5053376;28;20511;-82
2023/03/30 04:29:43;;;;;;;10.07;3.30;;;;;;;;;;5053456;28;20045;-81
2023/03/30 04:32:12;;;;;;;10.52;2.60;;;;;;;;;;5054053;28;20458;-82
2023/03/30 04:34:41;;;;;;;9.70;3.05;;;;;;;;;;5053477;28;20072;-81
2023/03/30 04:37:10;;;;;;;11.45;2.72;;;;;;;;;;5052937;28;20045;-81
2023/03/30 04:39:37;;;;;;;9.13;2.83;;;;;;;;;;5054578;28;20426;-82
2023/03/30 04:42:05;;;;;;;9.27;2.83;;;;;;;;;;5060337;28;20045;-81
2023/03/30 04:44:31;;;;;;;10.38;3.20;;;;;;;;;;5052524;28;20060;-81
2023/03/30 04:46:57;;;;;;;10.60;3.33;;;;;;;;;;5053382;28;20481;-81
2023/03/30 04:49:23;;;;;;;11.98;3.30;;;;;;;;;;5052912;28;20529;-81
2023/03/30 04:51:50;;;;;;;11.90;3.58;;;;;;;;;;5053032;28;20524;-81
2023/03/30 04:54:16;;;;;;;8.75;3.40;;;;;;;;;;5054040;28;20049;-81
2023/03/30 04:56:42;;;;;;;11.55;3.10;;;;;;;;;;5054278;28;20037;-81
2023/03/30 04:59:08;;;;;;;9.05;3.38;;;;;;;;;;5053019;28;20434;-81
2023/03/30 05:01:34;;;;;;;10.50;3.30;;;;;;;;;;5055966;28;20438;-81
2023/03/30 05:04:00;;;;;;;11.35;3.70;;;;;;;;;;5073049;28;20044;-81
2023/03/30 05:06:28;;;;;;;12.00;3.75;;;;;;;;;;5058630;28;20551;-82
2023/03/30 05:08:54;;;;;;;11.75;3.28;;;;;;;;;;5052802;28;20041;-81
2023/03/30 05:11:20;;;;;;;11.00;3.63;;;;;;;;;;5035783;28;20596;-81
2023/03/30 05:13:46;;;;;;;11.52;3.63;;;;;;;;;;5052742;28;20501;-82
2023/03/30 05:16:12;;;;;;;13.40;3.65;;;;;;;;;;5052266;28;20393;-81
2023/03/30 05:18:39;;;;;;;8.82;3.58;;;;;;;;;;5053897;28;20371;-81
2023/03/30 05:21:05;;;;;;;8.85;3.25;;;;;;;;;;5053253;28;20041;-81
2023/03/30 05:23:31;;;;;;;9.45;4.18;;;;;;;;;;5052201;28;20045;-81
2023/03/30 05:25:57;;;;;;;10.50;3.80;;;;;;;;;;5052201;28;20053;-81
2023/03/30 05:28:23;;;;;;;11.43;3.92;;;;;;;;;;5052319;28;20508;-81
2023/03/30 05:30:53;;;;;;;8.65;3.35;;;;;;;;;;5052652;28;20072;-81
2023/03/30 05:33:20;;;;;;;8.07;3.78;;;;;;;;;;5051871;28;20223;-81
2023/03/30 05:35:46;;;;;;;11.05;3.83;;;;;;;;;;5052564;28;20120;-81
2023/03/30 05:38:12;;;;;;;9.23;3.80;;;;;;;;;;5051627;28;20041;-81
2023/03/30 05:40:39;;;;;;;8.45;3.67;;;;;;;;;;5052602;28;20371;-81
2023/03/30 05:43:05;;;;;;;9.13;3.63;;;;;;;;;;5052251;28;20051;-81
2023/03/30 05:45:31;;;;;;;6.50;3.72;;;;;;;;;;5068611;28;20040;-81
2023/03/30 05:47:57;;;;;;;9.05;3.80;;;;;;;;;;5053154;28;20041;-81
2023/03/30 05:50:23;;;;;;;8.18;3.88;;;;;;;;;;5053239;28;20086;-81
2023/03/30 05:52:49;;;;;;;8.15;3.60;;;;;;;;;;5051739;28;20099;-81
2023/03/30 05:55:15;;;;;;;8.52;3.92;;;;;;;;;;5052857;28;20051;-81
2023/03/30 05:57:41;;;;;;;9.10;3.75;;;;;;;;;;5051900;28;20171;-81
2023/03/30 06:00:12;;;;;;;7.78;3.85;;;;;;;;;;5056988;28;20040;-81
2023/03/30 06:02:38;;;;;;;8.73;3.65;;;;;;;;;;5055614;28;20405;-81
2023/03/30 06:05:05;;;;;;;10.15;3.47;;;;;;;;;;5054024;28;20507;-81
2023/03/30 06:07:31;;;;;;;7.10;3.42;;;;;;;;;;5061040;28;20097;-81
2023/03/30 06:09:58;;;;;;;9.88;4.75;;;;;;;;;;5071582;28;20075;-81
2023/03/30 06:12:25;;;;;;;8.60;3.75;;;;;;;;;;5055075;28;20405;-81
2023/03/30 06:14:51;;;;;;;7.72;3.55;;;;;;;;;;5058710;28;20040;-81
2023/03/30 06:17:17;;;;;;;11.10;3.63;;;;;;;;;;5072518;28;20040;-81
2023/03/30 06:19:43;;;;;;;10.65;3.85;;;;;;;;;;5060600;28;20098;-81
2023/03/30 06:22:10;;;;;;;8.57;3.13;;;;;;;;;;5051739;28;20037;-81
2023/03/30 06:24:36;;;;;;;10.15;2.88;;;;;;;;;;5057540;28;20375;-81
2023/03/30 06:27:03;;;;;;;11.00;3.15;;;;;;;;;;5053544;28;20049;-81
2023/03/30 06:29:29;;;;;;;14.88;2.72;;;;;;;;;;5068809;28;20048;-81
2023/03/30 06:31:55;;;;;;;9.10;2.40;;;;;;;;;;5053759;28;20049;-81
2023/03/30 06:34:22;;;;;;;13.30;2.95;;;;;;;;;;5052498;28;20041;-81
2023/03/30 06:36:48;;;;;;;10.75;2.40;;;;;;;;;;5051516;28;20094;-81
2023/03/30 06:39:14;;;;;;;15.93;2.83;;;;;;;;;;5051327;28;20045;-81
2023/03/30 06:41:40;;;;;;;13.57;2.58;;;;;;;;;;5051370;28;20047;-82
2023/03/30 06:44:09;;;;;;;15.30;2.88;;;;;;;;;;5051185;28;20056;-82
2023/03/30 06:46:35;;;;;;;10.45;2.65;;;;;;;;;;5051200;28;20048;-81
2023/03/30 06:49:01;;;;;;;14.77;3.00;;;;;;;;;;5001629;28;20037;-81
2023/03/30 06:51:28;;;;;;;13.70;3.33;;;;;;;;;;5079026;28;20080;-81
2023/03/30 06:53:54;;;;;;;15.30;3.08;;;;;;;;;;5034659;28;20529;-81
2023/03/30 06:56:21;;;;;;;17.30;3.65;;;;;;;;;;5052045;28;20126;-82
2023/03/30 06:58:47;;;;;;;19.10;3.50;;;;;;;;;;5051335;28;20178;-82
2023/03/30 07:01:14;;;;;;;17.88;3.15;;;;;;;;;;5056959;28;20077;-81
2023/03/30 07:03:41;;;;;;;16.70;2.80;;;;;;;;;;5042900;28;20056;-82
2023/03/30 07:06:08;;;;;;;14.07;3.13;;;;;;;;;;5058628;28;20037;-81
2023/03/30 07:08:34;;;;;;;15.75;2.88;;;;;;;;;;5057149;28;20540;-81
2023/03/30 07:11:01;;;;;;;19.17;2.92;;;;;;;;;;5049587;28;20048;-81
2023/03/30 07:13:27;;;;;;;17.08;2.90;;;;;;;;;;5054493;28;20040;-81
2023/03/30 07:15:53;;;;;;;23.88;3.47;;;;;;;;;;5055387;28;20118;-81
2023/03/30 07:18:19;;;;;;;15.57;2.90;;;;;;;;;;5054194;28;20063;-81
2023/03/30 07:20:45;;;;;;;21.35;3.10;;;;;;;;;;5056328;28;20048;-81
2023/03/30 07:23:12;;;;;;;18.55;3.17;;;;;;;;;;5054600;28;20045;-81
2023/03/30 07:25:40;;;;;;;17.88;3.78;;;;;;;;;;5053913;28;20056;-81
2023/03/30 07:28:07;;;;;;;18.20;3.40;;;;;;;;;;5054634;28;20051;-82
2023/03/30 07:30:34;;;;;;;19.40;3.40;;;;;;;;;;5054338;28;20036;-82
2023/03/30 07:33:00;;;;;;;18.17;3.92;;;;;;;;;;5054375;28;20132;-81
2023/03/30 07:35:26;;;;;;;17.98;3.92;;;;;;;;;;5055479;28;20048;-81
2023/03/30 07:37:52;;;;;;;18.92;3.78;;;;;;;;;;5055932;28;20504;-81
2023/03/30 07:40:20;;;;;;;18.73;3.88;;;;;;;;;;5054254;28;20033;-81
2023/03/30 07:42:46;;;;;;;18.75;2.92;;;;;;;;;;5054335;28;20497;-81
2023/03/30 07:45:13;;;;;;;18.13;2.80;;;;;;;;;;5054260;28;20130;-81
2023/03/30 07:47:39;;;;;;;20.02;3.42;;;;;;;;;;5053845;28;20037;-81
2023/03/30 07:50:06;;;;;;;17.20;3.05;;;;;;;;;;5055673;28;20429;-81
2023/03/30 07:52:32;;;;;;;18.15;3.33;;;;;;;;;;5053942;28;20561;-82
2023/03/30 07:54:58;;;;;;;20.45;3.17;;;;;;;;;;5054211;28;20041;-81
2023/03/30 07:57:25;;;;;;;15.27;3.30;;;;;;;;;;5055022;28;20037;-81
2023/03/30 07:59:51;;;;;;;18.98;3.38;;;;;;;;;;5056516;28;20041;-81
2023/03/30 08:02:17;;;;;;;18.73;3.67;;;;;;;;;;5063370;28;20419;-82
2023/03/30 08:04:43;;;;;;;23.17;3.63;;;;;;;;;;5053338;28;20040;-81
2023/03/30 08:07:10;;;;;;;17.50;3.22;;;;;;;;;;5054359;28;20059;-82
2023/03/30 08:09:36;;;;;;;21.70;3.97;;;;;;;;;;5037109;28;20394;-81
2023/03/30 08:12:03;;;;;;;26.35;4.45;;;;;;;;;;5053694;28;20124;-82
2023/03/30 08:14:29;;;;;;;23.65;3.92;;;;;;;;;;5053383;28;20052;-82
2023/03/30 08:16:55;;;;;;;21.08;3.50;;;;;;;;;;5053762;28;20120;-82
2023/03/30 08:19:23;;;;;;;25.30;3.75;;;;;;;;;;5052483;28;20056;-82
2023/03/30 08:21:49;;;;;;;23.27;3.90;;;;;;;;;;5054829;28;20045;-81
2023/03/30 08:24:15;;;;;;;23.63;3.58;;;;;;;;;;5053463;28;20045;-81
2023/03/30 08:26:42;;;;;;;19.55;3.85;;;;;;;;;;5053182;28;20045;-81
2023/03/30 08:29:08;;;;;;;20.23;3.42;;;;;;;;;;5053664;28;20107;-82
2023/03/30 08:31:36;;;;;;;19.25;3.60;;;;;;;;;;5053587;28;20522;-82
2023/03/30 08:34:03;;;;;;;19.52;3.30;;;;;;;;;;5054309;28;20115;-82
2023/03/30 08:36:29;;;;;;;22.45;3.55;;;;;;;;;;5044790;28;20041;-82
2023/03/30 08:38:55;;;;;;;24.27;3.97;;;;;;;;;;5053499;28;20045;-81
2023/03/30 08:41:25;;;;;;;26.33;3.85;;;;;;;;;;5053225;28;20045;-82
2023/03/30 08:44:00;;;;;;;24.98;3.45;;;;;;;;;;5052733;28;20053;-81
2023/03/30 08:46:26;;;;;;;29.08;3.88;;;;;;;;;;5052996;28;20114;-82
2023/03/30 08:48:53;;;;;;;19.65;3.50;;;;;;;;;;5052805;28;20110;-82
2023/03/30 08:51:24;;;;;;;22.10;4.60;;;;;;;;;;5053054;28;20052;-82
2023/03/30 08:54:00;;;;;;;19.63;3.90;;;;;;;;;;5035931;28;20084;-82
2023/03/30 08:56:26;;;;;;;;;;;;;;;;;;5053624;28;20136;-82
2023/03/30 08:59:04;;;;;;;20.42;3.80;;;;;;;;;;5052628;28;20088;-82
2023/03/30 09:01:44;;;;;;;17.95;3.20;;;;;;;;;;5094715;28;20048;-82
2023/03/30 09:04:15;;;;;;;17.60;3.33;;;;;;;;;;5063660;28;20111;-83
2023/03/30 09:06:52;;;;;;;27.02;3.47;;;;;;;;;;5064286;28;20053;-82
2023/03/30 09:09:19;;;;;;;20.95;3.70;;;;;;;;;;5052855;28;20500;-81
2023/03/30 09:11:47;;;;;;;17.77;3.72;;;;;;;;;;5052375;28;20048;-82
2023/03/30 09:14:22;;;;;;;22.00;3.28;;;;;;;;;;5053799;28;20462;-82
2023/03/30 09:17:03;;;;;;;17.20;2.70;;;;;;;;;;5036210;28;20051;-82
2023/03/30 09:19:34;;;;;;;15.05;2.58;;;;;;;;;;5052460;28;20041;-82
2023/03/30 09:22:02;;;;;;;14.65;3.33;;;;;;;;;;5054071;28;20090;-82
2023/03/30 09:24:28;;;;;;;13.48;2.88;;;;;;;;;;5051965;28;20049;-82
2023/03/30 09:27:15;;;;;;;17.42;3.22;;;;;;;;;;5051995;28;20401;-82
2023/03/30 09:29:50;;;;;;;21.30;4.40;;;;;;;;;;5052217;28;20044;-82
2023/03/30 09:32:19;;;;;;;21.63;3.00;;;;;;;;;;5052467;28;20124;-82
2023/03/30 09:35:09;;;;;;;17.17;3.10;;;;;;;;;;5051905;28;20133;-82
2023/03/30 09:37:36;;;;;;;17.83;3.10;;;;;;;;;;5052585;28;20524;-82
2023/03/30 09:40:08;;;;;;;15.45;3.25;;;;;;;;;;5052006;28;20051;-82
2023/03/30 09:42:44;;;;;;;23.08;3.25;;;;;;;;;;5052364;28;20045;-82
2023/03/30 09:45:14;;;;;;;15.13;2.95;;;;;;;;;;5053263;28;20037;-82
2023/03/30 09:47:41;;;;;;;15.68;3.20;;;;;;;;;;5052972;28;20041;-82
2023/03/30 09:50:08;;;;;;;17.30;2.80;;;;;;;;;;5035563;28;20494;-81
2023/03/30 09:52:37;;;;;;;19.70;3.42;;;;;;;;;;5051833;28;20040;-81
2023/03/30 09:55:18;;;;;;;17.85;2.92;;;;;;;;;;5051747;28;20041;-81
2023/03/30 09:57:44;;;;;;;17.55;2.97;;;;;;;;;;5051762;28;20052;-82
2023/03/30 10:00:32;;;;;;;14.40;2.25;;;;;;;;;;5053199;28;20080;-82
2023/03/30 10:02:59;;;;;;;18.40;3.28;;;;;;;;;;5033467;28;20036;-82
2023/03/30 10:05:26;;;;;;;19.55;2.90;;;;;;;;;;5054746;28;20044;-82
2023/03/30 10:07:57;;;;;;;17.77;3.40;;;;;;;;;;5056664;28;20047;-82
2023/03/30 10:10:28;;;;;;;18.10;3.15;;;;;;;;;;5051755;28;20037;-82
2023/03/30 10:12:55;;;;;;;23.17;3.33;;;;;;;;;;5051344;28;20033;-82
2023/03/30 10:15:23;;;;;;;15.35;2.80;;;;;;;;;;5051970;28;20481;-82
2023/03/30 10:17:55;;;;;;;15.07;2.63;;;;;;;;;;5035286;28;20048;-82
2023/03/30 10:20:21;;;;;;;21.48;3.60;;;;;;;;;;5051860;28;20128;-82
2023/03/30 10:22:55;;;;;;;14.45;3.17;;;;;;;;;;5051414;28;20088;-83
2023/03/30 10:25:26;;;;;;;18.38;3.33;;;;;;;;;;5052441;28;20056;-82
2023/03/30 10:27:55;;;;;;;15.25;2.88;;;;;;;;;;5051324;28;20076;-82
2023/03/30 10:30:23;;;;;;;15.38;2.90;;;;;;;;;;5051221;28;20106;-82
2023/03/30 10:32:50;;;;;;;19.67;3.00;;;;;;;;;;5051579;28;20494;-82
2023/03/30 10:35:24;;;;;;;19.95;3.40;;;;;;;;;;5051342;28;20179;-82
2023/03/30 10:37:52;;;;;;;16.13;2.72;;;;;;;;;;5051454;28;20052;-82
2023/03/30 10:40:31;;;;;;;12.60;2.30;;;;;;;;;;5054604;28;20049;-82
2023/03/30 10:42:59;;;;;;;19.10;3.47;;;;;;;;;;5050711;28;20371;-82
2023/03/30 10:45:32;;;;;;;17.45;3.10;;;;;;;;;;5034277;28;20516;-82
2023/03/30 10:48:01;;;;;;;20.45;3.38;;;;;;;;;;5051146;28;20080;-82
2023/03/30 10:50:31;;;;;;;11.10;2.60;;;;;;;;;;5051447;28;20041;-82
2023/03/30 10:53:04;;;;;;;19.02;3.25;;;;;;;;;;5051282;28;20037;-82
2023/03/30 10:56:02;;;;;;;19.83;3.13;;;;;;;;;;5051434;28;20080;-82
2023/03/30 10:58:37;;;;;;;15.68;3.25;;;;;;;;;;5067354;28;20052;-82
2023/03/30 11:01:19;;;;;;;18.20;3.13;;;;;;;;;;5051360;28;20041;-82
2023/03/30 11:03:49;;;;;;;21.17;3.15;;;;;;;;;;5032754;28;20049;-83
2023/03/30 11:06:28;;;;;;;16.27;3.35;;;;;;;;;;5049439;28;20438;-82
2023/03/30 11:08:56;;;;;;;18.63;3.15;;;;;;;;;;5050760;28;20037;-82
2023/03/30 11:11:30;;;;;;;17.60;3.97;;;;;;;;;;5052501;28;20549;-83
2023/03/30 11:14:01;;;;;;;19.50;4.50;;;;;;;;;;5052374;28;20049;-83
2023/03/30 11:16:36;;;;;;;17.88;3.28;;;;;;;;;;5052480;28;20079;-83
2023/03/30 11:19:19;;;;;;;17.70;3.22;;;;;;;;;;5052479;28;20037;-82
2023/03/30 11:21:55;;;;;;;22.02;3.63;;;;;;;;;;5038722;28;20048;-82
2023/03/30 11:24:23;;;;;;;21.08;4.03;;;;;;;;;;5050593;28;20048;-82
2023/03/30 11:27:08;;;;;;;22.20;4.35;;;;;;;;;;5051987;28;20056;-82
2023/03/30 11:29:37;;;;;;;19.95;3.45;;;;;;;;;;5052063;28;20138;-82
2023/03/30 11:32:03;;;;;;;22.38;4.20;;;;;;;;;;5067638;28;20045;-82
2023/03/30 11:34:48;;;;;;;19.60;3.67;;;;;;;;;;5050953;28;20183;-83
2023/03/30 11:37:20;;;;;;;22.30;3.17;;;;;;;;;;5038374;28;20045;-83
2023/03/30 11:40:16;;;;;;;23.80;4.13;;;;;;;;;;5050965;28;20049;-82
2023/03/30 11:42:42;;;;;;;23.77;3.90;;;;;;;;;;5079937;28;20132;-82
2023/03/30 11:45:31;;;;;;;22.13;3.60;;;;;;;;;;5066520;28;20434;-82
2023/03/30 11:48:07;;;;;;;17.80;3.25;;;;;;;;;;5053341;28;20124;-82
2023/03/30 11:50:48;;;;;;;18.38;3.63;;;;;;;;;;5051183;28;20029;-82
2023/03/30 11:53:17;;;;;;;19.83;3.28;;;;;;;;;;5050574;28;20044;-83
2023/03/30 11:55:55;;;;;;;22.38;4.65;;;;;;;;;;5037698;28;20048;-83
2023/03/30 11:58:29;;;;;;;19.85;3.65;;;;;;;;;;5055776;28;20393;-83
2023/03/30 12:01:21;;;;;;;20.10;3.78;;;;;;;;;;5054067;28;20139;-82
2023/03/30 12:03:52;;;;;;;21.00;3.92;;;;;;;;;;5053630;28;20506;-82
2023/03/30 12:06:18;;;;;;;23.02;3.90;;;;;;;;;;5069398;28;20068;-82
2023/03/30 12:08:57;;;;;;;21.50;4.38;;;;;;;;;;5055837;28;20028;-82
2023/03/30 12:11:29;;;;;;;26.33;4.22;;;;;;;;;;5069116;28;20047;-83
2023/03/30 12:13:55;;;;;;;17.10;3.35;;;;;;;;;;5024567;28;20144;-83
2023/03/30 12:16:27;;;;;;;22.95;4.43;;;;;;;;;;5054319;28;20393;-83
2023/03/30 12:19:07;;;;;;;22.17;3.58;;;;;;;;;;5093432;28;20458;-81
2023/03/30 12:21:35;;;;;;;28.10;4.13;;;;;;;;;;5074627;28;20401;-83
2023/03/30 12:24:12;;;;;;;17.80;3.38;;;;;;;;;;5073905;28;20044;-82
2023/03/30 12:26:39;;;;;;;21.45;3.90;;;;;;;;;;5060689;28;20136;-83
2023/03/30 12:29:07;;;;;;;19.58;3.70;;;;;;;;;;5054255;28;20505;-81
2023/03/30 12:31:57;;;;;;;20.33;3.83;;;;;;;;;;5049099;28;20040;-82
2023/03/30 12:34:26;;;;;;;24.17;3.60;;;;;;;;;;5042985;28;20064;-82
2023/03/30 12:37:27;;;;;;;22.95;4.72;;;;;;;;;;5054350;28;20485;-82
2023/03/30 12:40:05;;;;;;;22.90;3.80;;;;;;;;;;5050871;28;20051;-80
2023/03/30 12:42:45;;;;;;;27.58;3.95;;;;;;;;;;5053104;28;20049;-82
2023/03/30 12:45:15;;;;;;;16.95;3.40;;;;;;;;;;5049181;28;20076;-82
2023/03/30 12:48:01;;;;;;;19.98;3.20;;;;;;;;;;5070557;28;20037;-82
2023/03/30 12:50:27;;;;;;;21.42;4.03;;;;;;;;;;5054942;28;20045;-82
2023/03/30 12:53:02;;;;;;;25.95;3.92;;;;;;;;;;5058728;28;20045;-82
2023/03/30 12:55:34;;;;;;;27.40;3.97;;;;;;;;;;5062140;28;20036;-82
2023/03/30 12:58:07;;;;;;;19.10;4.40;;;;;;;;;;5053090;28;20091;-82
2023/03/30 13:00:52;;;;;;;24.27;4.38;;;;;;;;;;5053209;28;20490;-82
2023/03/30 13:03:25;;;;;;;21.50;4.03;;;;;;;;;;5053854;28;20405;-83
2023/03/30 13:05:52;;;;;;;25.65;3.83;;;;;;;;;;5053492;28;20052;-82
2023/03/30 13:08:21;;;;;;;23.27;4.65;;;;;;;;;;5052560;28;20124;-82
2023/03/30 13:10:47;;;;;;;28.25;4.82;;;;;;;;;;5054018;28;20033;-82
2023/03/30 13:13:36;;;;;;;25.00;4.25;;;;;;;;;;5036051;28;20048;-82
2023/03/30 13:16:02;;;;;;;20.90;3.55;;;;;;;;;;5055211;28;20064;-82
2023/03/30 13:18:28;;;;;;;19.38;3.70;;;;;;;;;;5052563;28;20075;-82
2023/03/30 13:20:54;;;;;;;31.42;5.25;;;;;;;;;;5052723;28;20037;-82
2023/03/30 13:23:21;;;;;;;21.98;4.35;;;;;;;;;;5053843;28;20045;-82
2023/03/30 13:25:48;;;;;;;23.38;4.25;;;;;;;;;;5052617;28;20052;-82
2023/03/30 13:28:50;;;;;;;20.73;3.40;;;;;;;;;;5052319;28;20410;-82
2023/03/30 13:31:34;;;;;;;23.38;4.43;;;;;;;;;;5067830;28;20075;-82
2023/03/30 13:34:16;;;;;;;25.70;5.07;;;;;;;;;;5050927;28;20064;-82
2023/03/30 13:36:49;;;;;;;23.80;3.85;;;;;;;;;;5052127;28;20044;-82
2023/03/30 13:39:22;;;;;;;28.30;3.97;;;;;;;;;;5052404;28;20045;-82
2023/03/30 13:41:57;;;;;;;26.63;4.25;;;;;;;;;;5036018;28;20481;-82
2023/03/30 13:44:29;;;;;;;18.83;3.60;;;;;;;;;;5052299;28;20504;-82
2023/03/30 13:47:04;;;;;;;24.77;4.47;;;;;;;;;;5033379;28;20536;-82
2023/03/30 13:49:30;;;;;;;26.67;4.45;;;;;;;;;;5038834;28;20116;-83
2023/03/30 13:52:00;;;;;;;26.10;3.85;;;;;;;;;;5052470;28;20098;-83
2023/03/30 13:54:28;;;;;;;21.15;3.58;;;;;;;;;;5053281;28;20394;-82
2023/03/30 13:56:59;;;;;;;23.48;4.32;;;;;;;;;;5035619;28;20128;-83
2023/03/30 13:59:27;;;;;;;24.70;4.32;;;;;;;;;;5051615;28;20041;-82
2023/03/30 14:01:55;;;;;;;21.65;4.13;;;;;;;;;;5052142;28;20045;-82
2023/03/30 14:04:21;;;;;;;23.73;4.18;;;;;;;;;;5063539;28;20036;-82
2023/03/30 14:06:50;;;;;;;23.25;4.50;;;;;;;;;;5061818;28;20037;-82
2023/03/30 14:09:23;;;;;;;24.52;4.13;;;;;;;;;;5052891;28;20071;-82
2023/03/30 14:11:57;;;;;;;25.08;4.03;;;;;;;;;;5051731;28;20118;-82
2023/03/30 14:14:26;;;;;;;20.92;3.58;;;;;;;;;;5053010;28;20124;-82
2023/03/30 14:16:53;;;;;;;21.10;3.88;;;;;;;;;;5052433;28;20405;-82
2023/03/30 14:19:19;;;;;;;27.85;4.03;;;;;;;;;;5051225;28;20128;-81
2023/03/30 14:21:46;;;;;;;25.77;3.75;;;;;;;;;;5052958;28;20045;-82
2023/03/30 14:24:15;;;;;;;25.90;3.83;;;;;;;;;;5051315;28;20502;-82
2023/03/30 14:26:41;;;;;;;21.70;4.40;;;;;;;;;;5051209;28;20119;-82
2023/03/30 14:29:10;;;;;;;23.35;3.90;;;;;;;;;;5051356;28;20390;-82
2023/03/30 14:31:38;;;;;;;28.35;5.20;;;;;;;;;;5051341;28;20045;-82
2023/03/30 14:34:20;;;;;;;32.15;4.20;;;;;;;;;;5052727;28;20107;-82
2023/03/30 14:36:46;;;;;;;22.83;4.63;;;;;;;;;;5052973;28;20037;-82
2023/03/30 14:39:12;;;;;;;23.38;4.07;;;;;;;;;;5068069;28;20045;-83
2023/03/30 14:41:38;;;;;;;29.00;4.63;;;;;;;;;;5050987;28;20045;-83
2023/03/30 14:44:05;;;;;;;31.38;5.03;;;;;;;;;;5052472;28;20452;-82
2023/03/30 14:46:42;;;;;;;25.25;4.28;;;;;;;;;;5051293;28;20501;-83
2023/03/30 14:49:23;;;;;;;27.60;4.50;;;;;;;;;;5051045;28;20047;-83